Terminal Aerodrome Forecast
Issued by NWS

Home | Current Version | Previous Version | Text Only | Print | Product List | Glossary On
Versions: 1 2 3 4 5 6 7 8 9 10 11 12 13 14 15 16 17 18 19 20 21
516
FTUS44 KEWX 261135
TAFSSF
TAF
KSSF 261135Z 2612/2712 13005KT 1SM BR BKN009
     FM261400 13005KT 6SM BR OVC015
     FM261600 17010KT P6SM SCT040
     FM270600 13005KT P6SM OVC015
     FM271000 13005KT 4SM BR OVC007=

USA.gov is the U.S. government's official web portal to all federal, state and local government web resources and services.